sensor_id;sensor_type;location;lat;lon;timestamp;pressure;altitude;pressure_sealevel;temperature;humidity
24825;BME280;12910;57.690;11.974;2022-12-07T00:01:27;100239.69;;;-2.03;100.00
24825;BME280;12910;57.690;11.974;2022-12-07T00:03:55;100233.13;;;-2.01;100.00
24825;BME280;12910;57.690;11.974;2022-12-07T00:06:29;100223.94;;;-2.00;100.00
24825;BME280;12910;57.690;11.974;2022-12-07T00:08:55;100232.78;;;-1.92;100.00
24825;BME280;12910;57.690;11.974;2022-12-07T00:11:22;100235.75;;;-1.84;100.00
24825;BME280;12910;57.690;11.974;2022-12-07T00:13:52;100232.97;;;-1.89;100.00
24825;BME280;12910;57.690;11.974;2022-12-07T00:16:20;100229.97;;;-1.83;100.00
24825;BME280;12910;57.690;11.974;2022-12-07T00:18:46;100214.69;;;-1.86;100.00
24825;BME280;12910;57.690;11.974;2022-12-07T00:21:17;100222.44;;;-1.83;100.00
24825;BME280;12910;57.690;11.974;2022-12-07T00:23:44;100213.94;;;-1.85;100.00
24825;BME280;12910;57.690;11.974;2022-12-07T00:28:36;100220.09;;;-1.80;100.00
24825;BME280;12910;57.690;11.974;2022-12-07T00:31:05;100215.16;;;-1.79;100.00
24825;BME280;12910;57.690;11.974;2022-12-07T00:33:32;100214.47;;;-1.76;100.00
24825;BME280;12910;57.690;11.974;2022-12-07T00:35:58;100217.94;;;-1.74;100.00
24825;BME280;12910;57.690;11.974;2022-12-07T00:38:24;100200.97;;;-1.78;100.00
24825;BME280;12910;57.690;11.974;2022-12-07T00:41:00;100210.41;;;-1.74;100.00
24825;BME280;12910;57.690;11.974;2022-12-07T00:43:26;100207.97;;;-1.73;100.00
24825;BME280;12910;57.690;11.974;2022-12-07T00:45:52;100210.50;;;-1.73;100.00
24825;BME280;12910;57.690;11.974;2022-12-07T00:48:18;100205.72;;;-1.83;100.00
24825;BME280;12910;57.690;11.974;2022-12-07T00:50:43;100198.84;;;-1.85;100.00
24825;BME280;12910;57.690;11.974;2022-12-07T00:53:09;100184.78;;;-1.97;100.00
24825;BME280;12910;57.690;11.974;2022-12-07T00:55:35;100191.94;;;-1.90;100.00
24825;BME280;12910;57.690;11.974;2022-12-07T00:58:01;100192.97;;;-1.86;100.00
24825;BME280;12910;57.690;11.974;2022-12-07T01:00:26;100191.50;;;-1.82;100.00
24825;BME280;12910;57.690;11.974;2022-12-07T01:02:52;100180.78;;;-1.80;100.00
24825;BME280;12910;57.690;11.974;2022-12-07T01:05:17;100177.56;;;-1.77;100.00
24825;BME280;12910;57.690;11.974;2022-12-07T01:07:43;100183.94;;;-1.69;100.00
24825;BME280;12910;57.690;11.974;2022-12-07T01:10:09;100178.09;;;-1.68;100.00
24825;BME280;12910;57.690;11.974;2022-12-07T01:12:34;100176.66;;;-1.64;100.00
24825;BME280;12910;57.690;11.974;2022-12-07T01:14:59;100161.31;;;-1.69;100.00
24825;BME280;12910;57.690;11.974;2022-12-07T01:17:25;100164.59;;;-1.70;100.00
24825;BME280;12910;57.690;11.974;2022-12-07T01:19:50;100163.03;;;-1.68;100.00
24825;BME280;12910;57.690;11.974;2022-12-07T01:22:16;100161.47;;;-1.66;100.00
24825;BME280;12910;57.690;11.974;2022-12-07T01:24:41;100168.06;;;-1.68;100.00
24825;BME280;12910;57.690;11.974;2022-12-07T01:27:06;100155.75;;;-1.78;100.00
24825;BME280;12910;57.690;11.974;2022-12-07T01:29:32;100162.50;;;-1.77;100.00
24825;BME280;12910;57.690;11.974;2022-12-07T01:31:57;100158.16;;;-1.80;100.00
24825;BME280;12910;57.690;11.974;2022-12-07T01:34:22;100164.34;;;-1.75;100.00
24825;BME280;12910;57.690;11.974;2022-12-07T01:36:48;100159.59;;;-1.70;100.00
24825;BME280;12910;57.690;11.974;2022-12-07T01:39:13;100148.56;;;-1.72;100.00
24825;BME280;12910;57.690;11.974;2022-12-07T01:41:40;100156.28;;;-1.69;100.00
24825;BME280;12910;57.690;11.974;2022-12-07T01:44:20;100152.03;;;-1.70;100.00
24825;BME280;12910;57.690;11.974;2022-12-07T01:46:57;100143.72;;;-1.69;100.00
24825;BME280;12910;57.690;11.974;2022-12-07T01:51:49;100148.13;;;-1.65;100.00
24825;BME280;12910;57.690;11.974;2022-12-07T01:54:16;100135.25;;;-1.71;100.00
24825;BME280;12910;57.690;11.974;2022-12-07T01:56:48;100141.47;;;-1.64;100.00
24825;BME280;12910;57.690;11.974;2022-12-07T01:59:18;100146.66;;;-1.61;100.00
24825;BME280;12910;57.690;11.974;2022-12-07T02:01:45;100140.00;;;-1.61;100.00
24825;BME280;12910;57.690;11.974;2022-12-07T02:04:11;100133.25;;;-1.62;100.00
24825;BME280;12910;57.690;11.974;2022-12-07T02:06:37;100139.22;;;-1.60;100.00
24825;BME280;12910;57.690;11.974;2022-12-07T02:09:03;100135.84;;;-1.60;100.00
24825;BME280;12910;57.690;11.974;2022-12-07T02:11:29;100123.97;;;-1.63;100.00
24825;BME280;12910;57.690;11.974;2022-12-07T02:13:54;100116.63;;;-1.60;100.00
24825;BME280;12910;57.690;11.974;2022-12-07T02:16:38;100133.97;;;-1.49;100.00
24825;BME280;12910;57.690;11.974;2022-12-07T02:19:41;100138.97;;;-1.49;100.00
24825;BME280;12910;57.690;11.974;2022-12-07T02:25:08;100123.19;;;-1.47;100.00
24825;BME280;12910;57.690;11.974;2022-12-07T02:27:47;100129.09;;;-1.46;100.00
24825;BME280;12910;57.690;11.974;2022-12-07T02:30:17;100116.50;;;-1.46;100.00
24825;BME280;12910;57.690;11.974;2022-12-07T02:33:11;100116.63;;;-1.45;100.00
24825;BME280;12910;57.690;11.974;2022-12-07T02:35:41;100113.16;;;-1.47;100.00
24825;BME280;12910;57.690;11.974;2022-12-07T02:43:09;100106.47;;;-1.46;100.00
24825;BME280;12910;57.690;11.974;2022-12-07T02:45:38;100099.56;;;-1.50;100.00
24825;BME280;12910;57.690;11.974;2022-12-07T02:48:05;100092.88;;;-1.50;100.00
24825;BME280;12910;57.690;11.974;2022-12-07T02:50:32;100094.59;;;-1.49;100.00
24825;BME280;12910;57.690;11.974;2022-12-07T02:52:57;100085.25;;;-1.51;100.00
24825;BME280;12910;57.690;11.974;2022-12-07T02:55:28;100096.34;;;-1.48;100.00
24825;BME280;12910;57.690;11.974;2022-12-07T02:58:05;100091.13;;;-1.51;100.00
24825;BME280;12910;57.690;11.974;2022-12-07T03:00:41;100086.72;;;-1.55;100.00
24825;BME280;12910;57.690;11.974;2022-12-07T03:03:13;100080.03;;;-1.54;100.00
24825;BME280;12910;57.690;11.974;2022-12-07T03:08:44;100088.34;;;-1.55;100.00
24825;BME280;12910;57.690;11.974;2022-12-07T03:11:24;100082.47;;;-1.56;100.00
24825;BME280;12910;57.690;11.974;2022-12-07T03:16:39;100086.63;;;-1.57;100.00
24825;BME280;12910;57.690;11.974;2022-12-07T03:19:18;100073.09;;;-1.59;100.00
24825;BME280;12910;57.690;11.974;2022-12-07T03:21:49;100070.44;;;-1.62;100.00
24825;BME280;12910;57.690;11.974;2022-12-07T03:24:21;100072.75;;;-1.65;100.00
24825;BME280;12910;57.690;11.974;2022-12-07T03:27:01;100064.44;;;-1.64;100.00
24825;BME280;12910;57.690;11.974;2022-12-07T03:29:40;100070.94;;;-1.52;100.00
24825;BME280;12910;57.690;11.974;2022-12-07T03:32:31;100064.09;;;-1.55;100.00
24825;BME280;12910;57.690;11.974;2022-12-07T03:35:05;100066.88;;;-1.50;100.00
24825;BME280;12910;57.690;11.974;2022-12-07T03:37:36;100069.66;;;-1.46;100.00
24825;BME280;12910;57.690;11.974;2022-12-07T03:43:00;100071.63;;;-1.40;100.00
24825;BME280;12910;57.690;11.974;2022-12-07T03:45:38;100074.16;;;-1.40;100.00
24825;BME280;12910;57.690;11.974;2022-12-07T03:48:15;100069.38;;;-1.35;100.00
24825;BME280;12910;57.690;11.974;2022-12-07T03:53:59;100067.72;;;-1.35;100.00
24825;BME280;12910;57.690;11.974;2022-12-07T03:56:28;100066.16;;;-1.33;100.00
24825;BME280;12910;57.690;11.974;2022-12-07T03:58:54;100055.06;;;-1.36;100.00
24825;BME280;12910;57.690;11.974;2022-12-07T04:01:19;100051.94;;;-1.32;100.00
24825;BME280;12910;57.690;11.974;2022-12-07T04:03:45;100061.13;;;-1.33;100.00
24825;BME280;12910;57.690;11.974;2022-12-07T04:06:11;100050.28;;;-1.32;100.00
24825;BME280;12910;57.690;11.974;2022-12-07T04:08:36;100054.53;;;-1.31;100.00
24825;BME280;12910;57.690;11.974;2022-12-07T04:11:01;100056.25;;;-1.30;100.00
24825;BME280;12910;57.690;11.974;2022-12-07T04:13:27;100056.44;;;-1.27;100.00
24825;BME280;12910;57.690;11.974;2022-12-07T04:15:52;100052.88;;;-1.30;100.00
24825;BME280;12910;57.690;11.974;2022-12-07T04:18:18;100053.91;;;-1.27;100.00
24825;BME280;12910;57.690;11.974;2022-12-07T04:20:43;100041.56;;;-1.38;100.00
24825;BME280;12910;57.690;11.974;2022-12-07T04:23:09;100040.34;;;-1.45;100.00
24825;BME280;12910;57.690;11.974;2022-12-07T04:25:34;100049.00;;;-1.40;100.00
24825;BME280;12910;57.690;11.974;2022-12-07T04:27:59;100052.31;;;-1.41;100.00
24825;BME280;12910;57.690;11.974;2022-12-07T04:30:25;100054.31;;;-1.50;100.00
24825;BME280;12910;57.690;11.974;2022-12-07T04:32:50;100052.13;;;-1.44;100.00
24825;BME280;12910;57.690;11.974;2022-12-07T04:35:15;100047.28;;;-1.41;100.00
24825;BME280;12910;57.690;11.974;2022-12-07T04:37:41;100050.91;;;-1.36;100.00
24825;BME280;12910;57.690;11.974;2022-12-07T04:40:10;100045.03;;;-1.36;100.00
24825;BME280;12910;57.690;11.974;2022-12-07T04:42:37;100041.47;;;-1.40;100.00
24825;BME280;12910;57.690;11.974;2022-12-07T04:45:02;100052.63;;;-1.35;100.00
24825;BME280;12910;57.690;11.974;2022-12-07T04:47:28;100060.34;;;-1.32;100.00
24825;BME280;12910;57.690;11.974;2022-12-07T04:49:53;100056.25;;;-1.30;100.00
24825;BME280;12910;57.690;11.974;2022-12-07T04:52:18;100052.03;;;-1.31;100.00
24825;BME280;12910;57.690;11.974;2022-12-07T04:54:44;100046.91;;;-1.32;100.00
24825;BME280;12910;57.690;11.974;2022-12-07T04:57:09;100068.41;;;-1.22;100.00
24825;BME280;12910;57.690;11.974;2022-12-07T04:59:34;100070.13;;;-1.21;100.00
24825;BME280;12910;57.690;11.974;2022-12-07T05:02:00;100063.19;;;-1.26;100.00
24825;BME280;12910;57.690;11.974;2022-12-07T05:04:25;100070.13;;;-1.21;100.00
24825;BME280;12910;57.690;11.974;2022-12-07T05:06:50;100057.31;;;-1.26;100.00
24825;BME280;12910;57.690;11.974;2022-12-07T05:09:16;100063.38;;;-1.22;100.00
24825;BME280;12910;57.690;11.974;2022-12-07T05:11:41;100073.75;;;-1.16;100.00
24825;BME280;12910;57.690;11.974;2022-12-07T05:16:37;100073.75;;;-1.16;100.00
24825;BME280;12910;57.690;11.974;2022-12-07T05:19:03;100073.94;;;-1.13;100.00
24825;BME280;12910;57.690;11.974;2022-12-07T05:21:28;100072.97;;;-1.15;100.00
24825;BME280;12910;57.690;11.974;2022-12-07T05:23:54;100073.56;;;-1.19;100.00
24825;BME280;12910;57.690;11.974;2022-12-07T05:26:19;100069.75;;;-1.13;100.00
24825;BME280;12910;57.690;11.974;2022-12-07T05:28:44;100074.94;;;-1.10;100.00
24825;BME280;12910;57.690;11.974;2022-12-07T05:31:10;100077.72;;;-1.05;100.00
24825;BME280;12910;57.690;11.974;2022-12-07T05:33:35;100075.19;;;-1.05;100.00
24825;BME280;12910;57.690;11.974;2022-12-07T05:36:01;100084.47;;;-1.04;100.00
24825;BME280;12910;57.690;11.974;2022-12-07T05:38:31;100074.31;;;-1.05;100.00
24825;BME280;12910;57.690;11.974;2022-12-07T05:41:00;100081.19;;;-1.03;100.00
24825;BME280;12910;57.690;11.974;2022-12-07T05:43:26;100079.44;;;-1.04;100.00
24825;BME280;12910;57.690;11.974;2022-12-07T05:45:52;100074.41;;;-1.04;100.00
24825;BME280;12910;57.690;11.974;2022-12-07T05:48:17;100071.91;;;-1.04;100.00
24825;BME280;12910;57.690;11.974;2022-12-07T05:50:42;100078.03;;;-0.99;100.00
24825;BME280;12910;57.690;11.974;2022-12-07T05:53:08;100073.53;;;-1.04;100.00
24825;BME280;12910;57.690;11.974;2022-12-07T05:55:33;100075.13;;;-1.06;100.00
24825;BME280;12910;57.690;11.974;2022-12-07T05:57:58;100078.56;;;-1.04;100.00
24825;BME280;12910;57.690;11.974;2022-12-07T06:00:42;100078.56;;;-1.04;100.00
24825;BME280;12910;57.690;11.974;2022-12-07T06:03:08;100091.06;;;-1.06;100.00
24825;BME280;12910;57.690;11.974;2022-12-07T06:05:33;100081.72;;;-1.08;100.00
24825;BME280;12910;57.690;11.974;2022-12-07T06:07:58;100077.94;;;-1.17;100.00
24825;BME280;12910;57.690;11.974;2022-12-07T06:10:24;100078.78;;;-1.16;100.00
24825;BME280;12910;57.690;11.974;2022-12-07T06:12:49;100069.97;;;-1.24;100.00
24825;BME280;12910;57.690;11.974;2022-12-07T06:15:15;100082.25;;;-1.14;100.00
24825;BME280;12910;57.690;11.974;2022-12-07T06:17:40;100091.53;;;-1.13;100.00
24825;BME280;12910;57.690;11.974;2022-12-07T06:20:06;100082.06;;;-1.17;100.00
24825;BME280;12910;57.690;11.974;2022-12-07T06:22:32;100094.03;;;-1.13;100.00
24825;BME280;12910;57.690;11.974;2022-12-07T06:24:57;100078.06;;;-1.14;100.00
24825;BME280;12910;57.690;11.974;2022-12-07T06:27:22;100094.03;;;-1.13;100.00
24825;BME280;12910;57.690;11.974;2022-12-07T06:29:48;100082.44;;;-1.11;100.00
24825;BME280;12910;57.690;11.974;2022-12-07T06:32:13;100078.84;;;-1.15;100.00
24825;BME280;12910;57.690;11.974;2022-12-07T06:34:38;100077.03;;;-1.17;100.00
24825;BME280;12910;57.690;11.974;2022-12-07T06:37:04;100089.34;;;-1.07;100.00
24825;BME280;12910;57.690;11.974;2022-12-07T06:39:29;100077.81;;;-1.18;100.00
24825;BME280;12910;57.690;11.974;2022-12-07T06:41:55;100088.31;;;-1.11;100.00
24825;BME280;12910;57.690;11.974;2022-12-07T06:44:21;100081.63;;;-1.10;100.00
24825;BME280;12910;57.690;11.974;2022-12-07T06:46:48;100080.84;;;-1.09;100.00
24825;BME280;12910;57.690;11.974;2022-12-07T06:49:13;100090.22;;;-1.06;100.00
24825;BME280;12910;57.690;11.974;2022-12-07T06:51:39;100073.75;;;-1.16;100.00
24825;BME280;12910;57.690;11.974;2022-12-07T06:54:10;100089.97;;;-1.11;100.00
24825;BME280;12910;57.690;11.974;2022-12-07T06:56:37;100089.16;;;-1.10;100.00
24825;BME280;12910;57.690;11.974;2022-12-07T06:59:02;100084.06;;;-1.12;100.00
24825;BME280;12910;57.690;11.974;2022-12-07T07:01:28;100092.63;;;-1.08;100.00
24825;BME280;12910;57.690;11.974;2022-12-07T07:03:53;100080.84;;;-1.09;100.00
24825;BME280;12910;57.690;11.974;2022-12-07T07:06:19;100082.44;;;-1.11;100.00
24825;BME280;12910;57.690;11.974;2022-12-07T07:08:44;100083.28;;;-1.11;100.00
24825;BME280;12910;57.690;11.974;2022-12-07T07:11:11;100077.16;;;-1.16;100.00
24825;BME280;12910;57.690;11.974;2022-12-07T07:13:37;100088.38;;;-1.09;100.00
24825;BME280;12910;57.690;11.974;2022-12-07T07:16:03;100090.75;;;-1.12;100.00
24825;BME280;12910;57.690;11.974;2022-12-07T07:18:29;100080.69;;;-1.12;100.00
24825;BME280;12910;57.690;11.974;2022-12-07T07:20:55;100086.88;;;-1.05;100.00
24825;BME280;12910;57.690;11.974;2022-12-07T07:23:21;100089.34;;;-1.07;100.00
24825;BME280;12910;57.690;11.974;2022-12-07T07:25:47;100085.00;;;-1.10;100.00
24825;BME280;12910;57.690;11.974;2022-12-07T07:28:13;100086.75;;;-1.08;100.00
24825;BME280;12910;57.690;11.974;2022-12-07T07:30:38;100089.34;;;-1.07;100.00
24825;BME280;12910;57.690;11.974;2022-12-07T07:33:04;100088.63;;;-1.04;100.00
24825;BME280;12910;57.690;11.974;2022-12-07T07:35:31;100091.25;;;-1.03;100.00
24825;BME280;12910;57.690;11.974;2022-12-07T07:37:57;100089.34;;;-1.07;100.00
24825;BME280;12910;57.690;11.974;2022-12-07T07:40:23;100091.00;;;-1.07;100.00
24825;BME280;12910;57.690;11.974;2022-12-07T07:42:50;100095.16;;;-1.08;100.00
24825;BME280;12910;57.690;11.974;2022-12-07T07:45:16;100089.00;;;-1.13;100.00
24825;BME280;12910;57.690;11.974;2022-12-07T07:47:42;100096.44;;;-1.15;100.00
24825;BME280;12910;57.690;11.974;2022-12-07T07:50:07;100094.81;;;-1.14;100.00
24825;BME280;12910;57.690;11.974;2022-12-07T07:52:33;100107.72;;;-1.08;100.00
24825;BME280;12910;57.690;11.974;2022-12-07T07:54:58;100103.91;;;-1.16;100.00
24825;BME280;12910;57.690;11.974;2022-12-07T07:57:24;100108.78;;;-1.19;100.00
24825;BME280;12910;57.690;11.974;2022-12-07T07:59:49;100102.47;;;-1.28;100.00
24825;BME280;12910;57.690;11.974;2022-12-07T08:02:17;100113.41;;;-1.27;100.00
24825;BME280;12910;57.690;11.974;2022-12-07T08:04:43;100109.66;;;-1.34;100.00
24825;BME280;12910;57.690;11.974;2022-12-07T08:07:10;100104.63;;;-1.34;100.00
24825;BME280;12910;57.690;11.974;2022-12-07T08:09:35;100108.91;;;-1.33;100.00
24825;BME280;12910;57.690;11.974;2022-12-07T08:12:01;100112.38;;;-1.31;100.00
24825;BME280;12910;57.690;11.974;2022-12-07T08:14:26;100103.22;;;-1.29;100.00
24825;BME280;12910;57.690;11.974;2022-12-07T08:16:54;100088.00;;;-1.32;100.00
24825;BME280;12910;57.690;11.974;2022-12-07T08:19:19;100089.03;;;-1.28;100.00
24825;BME280;12910;57.690;11.974;2022-12-07T08:21:45;100097.94;;;-1.18;100.00
24825;BME280;12910;57.690;11.974;2022-12-07T08:24:10;100088.59;;;-1.21;100.00
24825;BME280;12910;57.690;11.974;2022-12-07T08:26:36;100088.34;;;-1.26;100.00
24825;BME280;12910;57.690;11.974;2022-12-07T08:29:01;100093.53;;;-1.22;100.00
24825;BME280;12910;57.690;11.974;2022-12-07T08:31:27;100089.53;;;-1.19;100.00
24825;BME280;12910;57.690;11.974;2022-12-07T08:33:53;100093.94;;;-1.15;100.00
24825;BME280;12910;57.690;11.974;2022-12-07T08:36:19;100096.38;;;-1.16;100.00
24825;BME280;12910;57.690;11.974;2022-12-07T08:38:46;100087.22;;;-1.16;100.00
24825;BME280;12910;57.690;11.974;2022-12-07T08:41:12;100084.59;;;-1.17;100.00
24825;BME280;12910;57.690;11.974;2022-12-07T08:43:37;100085.03;;;-1.24;100.00
24825;BME280;12910;57.690;11.974;2022-12-07T08:46:13;100074.56;;;-1.32;100.00
24825;BME280;12910;57.690;11.974;2022-12-07T08:48:49;100079.69;;;-1.31;100.00
24825;BME280;12910;57.690;11.974;2022-12-07T08:51:15;100090.41;;;-1.33;100.00
24825;BME280;12910;57.690;11.974;2022-12-07T08:53:41;100098.66;;;-1.36;100.00
24825;BME280;12910;57.690;11.974;2022-12-07T08:56:07;100081.69;;;-1.40;100.00
24825;BME280;12910;57.690;11.974;2022-12-07T08:58:34;100085.66;;;-1.44;100.00
24825;BME280;12910;57.690;11.974;2022-12-07T09:01:00;100086.63;;;-1.42;100.00
24825;BME280;12910;57.690;11.974;2022-12-07T09:03:26;100089.56;;;-1.49;100.00
24825;BME280;12910;57.690;11.974;2022-12-07T09:05:52;100076.03;;;-1.51;100.00
24825;BME280;12910;57.690;11.974;2022-12-07T09:08:19;100092.41;;;-1.43;100.00
24825;BME280;12910;57.690;11.974;2022-12-07T09:10:44;100086.72;;;-1.40;100.00
24825;BME280;12910;57.690;11.974;2022-12-07T09:13:10;100079.53;;;-1.49;100.00
24825;BME280;12910;57.690;11.974;2022-12-07T09:15:35;100083.00;;;-1.47;100.00
24825;BME280;12910;57.690;11.974;2022-12-07T09:18:01;100070.59;;;-1.59;100.00
24825;BME280;12910;57.690;11.974;2022-12-07T09:20:26;100075.00;;;-1.54;100.00
24825;BME280;12910;57.690;11.974;2022-12-07T09:22:51;100066.69;;;-1.53;100.00
24825;BME280;12910;57.690;11.974;2022-12-07T09:25:17;100058.03;;;-1.59;100.00
24825;BME280;12910;57.690;11.974;2022-12-07T09:27:42;100063.22;;;-1.55;100.00
24825;BME280;12910;57.690;11.974;2022-12-07T09:30:08;100071.03;;;-1.51;100.00
24825;BME280;12910;57.690;11.974;2022-12-07T09:32:33;100062.53;;;-1.53;100.00
24825;BME280;12910;57.690;11.974;2022-12-07T09:34:59;100061.22;;;-1.46;100.00
24825;BME280;12910;57.690;11.974;2022-12-07T09:37:24;100066.19;;;-1.48;100.00
24825;BME280;12910;57.690;11.974;2022-12-07T09:39:49;100068.75;;;-1.46;100.00
24825;BME280;12910;57.690;11.974;2022-12-07T09:42:28;100051.28;;;-1.45;100.00
24825;BME280;12910;57.690;11.974;2022-12-07T09:44:55;100056.44;;;-1.42;100.00
24825;BME280;12910;57.690;11.974;2022-12-07T09:47:21;100054.91;;;-1.39;100.00
24825;BME280;12910;57.690;11.974;2022-12-07T09:49:47;100049.88;;;-1.39;100.00
24825;BME280;12910;57.690;11.974;2022-12-07T09:54:46;100037.66;;;-1.48;100.00
24825;BME280;12910;57.690;11.974;2022-12-07T09:57:13;100047.28;;;-1.41;100.00
24825;BME280;12910;57.690;11.974;2022-12-07T09:59:39;100044.13;;;-1.37;100.00
24825;BME280;12910;57.690;11.974;2022-12-07T10:04:58;100037.72;;;-1.32;100.00
24825;BME280;12910;57.690;11.974;2022-12-07T10:07:24;100039.28;;;-1.34;100.00
24825;BME280;12910;57.690;11.974;2022-12-07T10:09:49;100030.09;;;-1.33;100.00
24825;BME280;12910;57.690;11.974;2022-12-07T10:12:15;100039.09;;;-1.37;100.00
24825;BME280;12910;57.690;11.974;2022-12-07T10:14:54;100043.63;;;-1.46;100.00
24825;BME280;12910;57.690;11.974;2022-12-07T10:17:30;100045.09;;;-1.35;100.00
24825;BME280;12910;57.690;11.974;2022-12-07T10:22:36;100034.06;;;-1.37;100.00
24825;BME280;12910;57.690;11.974;2022-12-07T10:25:18;100042.75;;;-1.32;100.00
24825;BME280;12910;57.690;11.974;2022-12-07T10:27:44;100021.97;;;-1.44;100.00
24825;BME280;12910;57.690;11.974;2022-12-07T10:30:22;100035.34;;;-1.29;100.00
24825;BME280;12910;57.690;11.974;2022-12-07T10:32:47;100042.31;;;-1.24;100.00
24825;BME280;12910;57.690;11.974;2022-12-07T10:35:23;100032.81;;;-1.45;100.00
24825;BME280;12910;57.690;11.974;2022-12-07T10:37:49;100043.81;;;-1.43;100.00
24825;BME280;12910;57.690;11.974;2022-12-07T10:43:21;100042.78;;;-1.47;100.00
24825;BME280;12910;57.690;11.974;2022-12-07T11:01:51;100023.91;;;-1.70;100.00
24825;BME280;12910;57.690;11.974;2022-12-07T11:10:02;100001.63;;;-1.64;100.00
24825;BME280;12910;57.690;11.974;2022-12-07T11:17:59;99993.09;;;-1.82;100.00
24825;BME280;12910;57.690;11.974;2022-12-07T11:26:17;100003.84;;;-2.00;100.00
24825;BME280;12910;57.690;11.974;2022-12-07T11:34:30;100003.22;;;-1.96;100.00
24825;BME280;12910;57.690;11.974;2022-12-07T11:37:02;99991.09;;;-2.18;100.00
24825;BME280;12910;57.690;11.974;2022-12-07T11:39:52;99996.75;;;-2.07;100.00
24825;BME280;12910;57.690;11.974;2022-12-07T11:42:22;99991.88;;;-2.19;100.00
24825;BME280;12910;57.690;11.974;2022-12-07T11:45:32;99984.59;;;-2.14;100.00
24825;BME280;12910;57.690;11.974;2022-12-07T11:47:45;99992.13;;;-2.14;100.00
24825;BME280;12910;57.690;11.974;2022-12-07T11:50:34;99993.78;;;-2.15;100.00
24825;BME280;12910;57.690;11.974;2022-12-07T12:01:11;99980.69;;;-2.39;100.00
24825;BME280;12910;57.690;11.974;2022-12-07T12:03:44;99971.09;;;-2.46;100.00
24825;BME280;12910;57.690;11.974;2022-12-07T12:06:12;99966.91;;;-2.46;100.00
24825;BME280;12910;57.690;11.974;2022-12-07T12:08:53;99972.81;;;-2.45;100.00
24825;BME280;12910;57.690;11.974;2022-12-07T12:14:40;99968.50;;;-2.33;100.00
24825;BME280;12910;57.690;11.974;2022-12-07T12:22:43;99972.03;;;-2.29;100.00
24825;BME280;12910;57.690;11.974;2022-12-07T12:25:21;99973.06;;;-2.26;100.00
24825;BME280;12910;57.690;11.974;2022-12-07T12:27:49;99959.47;;;-2.29;100.00
24825;BME280;12910;57.690;11.974;2022-12-07T12:30:30;99968.75;;;-2.28;100.00
24825;BME280;12910;57.690;11.974;2022-12-07T12:33:15;99966.88;;;-2.32;100.00
24825;BME280;12910;57.690;11.974;2022-12-07T12:35:43;99964.69;;;-2.26;100.00
24825;BME280;12910;57.690;11.974;2022-12-07T12:38:33;99961.94;;;-2.16;100.00
24825;BME280;12910;57.690;11.974;2022-12-07T12:41:00;99945.75;;;-2.36;100.00
24825;BME280;12910;57.690;11.974;2022-12-07T12:51:51;99953.81;;;-2.27;100.00
24825;BME280;12910;57.690;11.974;2022-12-07T12:57:08;99956.91;;;-2.16;100.00
24825;BME280;12910;57.690;11.974;2022-12-07T12:59:36;99954.72;;;-2.25;100.00
24825;BME280;12910;57.690;11.974;2022-12-07T13:15:49;99940.78;;;-2.49;100.00
24825;BME280;12910;57.690;11.974;2022-12-07T13:21:00;99946.53;;;-2.37;100.00
24825;BME280;12910;57.690;11.974;2022-12-07T13:23:27;99952.31;;;-2.38;100.00
24825;BME280;12910;57.690;11.974;2022-12-07T13:28:33;99943.63;;;-2.43;100.00
24825;BME280;12910;57.690;11.974;2022-12-07T13:31:09;99959.66;;;-2.41;100.00
24825;BME280;12910;57.690;11.974;2022-12-07T13:33:36;99948.38;;;-2.63;100.00
24825;BME280;12910;57.690;11.974;2022-12-07T13:36:02;99957.28;;;-2.68;100.00
24825;BME280;12910;57.690;11.974;2022-12-07T13:38:32;99954.78;;;-2.68;100.00
24825;BME280;12910;57.690;11.974;2022-12-07T13:41:24;99951.13;;;-2.73;100.00
24825;BME280;12910;57.690;11.974;2022-12-07T13:46:13;99952.19;;;-2.55;100.00
24825;BME280;12910;57.690;11.974;2022-12-07T13:48:49;99941.72;;;-2.62;100.00
24825;BME280;12910;57.690;11.974;2022-12-07T13:51:26;99957.91;;;-2.57;100.00
24825;BME280;12910;57.690;11.974;2022-12-07T13:54:15;99950.53;;;-2.69;100.00
24825;BME280;12910;57.690;11.974;2022-12-07T13:56:40;99951.91;;;-2.59;100.00
24825;BME280;12910;57.690;11.974;2022-12-07T13:59:26;99931.44;;;-2.67;100.00
24825;BME280;12910;57.690;11.974;2022-12-07T14:01:52;99945.88;;;-2.63;100.00
24825;BME280;12910;57.690;11.974;2022-12-07T14:04:19;99952.28;;;-2.68;100.00
24825;BME280;12910;57.690;11.974;2022-12-07T14:06:52;99949.22;;;-2.77;100.00
24825;BME280;12910;57.690;11.974;2022-12-07T14:09:20;99956.50;;;-2.67;100.00
24825;BME280;12910;57.690;11.974;2022-12-07T14:11:49;99949.41;;;-2.74;100.00
24825;BME280;12910;57.690;11.974;2022-12-07T14:14:19;99954.69;;;-2.70;100.00
24825;BME280;12910;57.690;11.974;2022-12-07T14:16:59;99950.59;;;-2.83;100.00
24825;BME280;12910;57.690;11.974;2022-12-07T14:19:49;99946.06;;;-2.88;100.00
24825;BME280;12910;57.690;11.974;2022-12-07T14:22:29;99944.91;;;-2.80;100.00
24825;BME280;12910;57.690;11.974;2022-12-07T14:25:20;99932.69;;;-2.89;100.00
24825;BME280;12910;57.690;11.974;2022-12-07T14:28:09;99946.19;;;-2.87;100.00
24825;BME280;12910;57.690;11.974;2022-12-07T14:30:35;99947.22;;;-2.83;100.00
24825;BME280;12910;57.690;11.974;2022-12-07T14:33:03;99941.31;;;-2.84;100.00
24825;BME280;12910;57.690;11.974;2022-12-07T14:35:30;99940.66;;;-2.81;100.00
24825;BME280;12910;57.690;11.974;2022-12-07T14:37:56;99944.03;;;-2.80;100.00
24825;BME280;12910;57.690;11.974;2022-12-07T14:40:27;99942.72;;;-2.89;100.00
24825;BME280;12910;57.690;11.974;2022-12-07T14:43:00;99929.13;;;-2.92;100.00
24825;BME280;12910;57.690;11.974;2022-12-07T14:45:27;99931.91;;;-2.88;100.00
24825;BME280;12910;57.690;11.974;2022-12-07T14:47:52;99931.16;;;-3.00;100.00